createdAt,value
2023-02-22T00:01:19.387Z,15.65
2023-02-22T00:06:25.225Z,17.23
2023-02-22T00:11:27.445Z,16.80
2023-02-22T00:16:31.098Z,16.65
2023-02-22T00:21:33.226Z,17.75
2023-02-22T00:26:35.380Z,17.27
2023-02-22T00:31:39.296Z,16.73
2023-02-22T00:36:48.524Z,20.38
2023-02-22T00:41:50.720Z,18.88
2023-02-22T00:46:52.978Z,19.55
2023-02-22T00:51:57.382Z,17.77
2023-02-22T00:56:59.541Z,18.77
2023-02-22T01:02:02.800Z,17.15
2023-02-22T01:07:05.341Z,18.35
2023-02-22T01:12:08.176Z,14.10
2023-02-22T01:17:10.377Z,18.88
2023-02-22T01:22:12.571Z,17.88
2023-02-22T01:27:15.298Z,19.60
2023-02-22T01:32:17.709Z,18.73
2023-02-22T01:37:19.977Z,16.92
2023-02-22T01:42:24.137Z,17.08
2023-02-22T01:47:26.345Z,17.42
2023-02-22T01:52:28.561Z,16.88
2023-02-22T01:57:34.831Z,16.65
2023-02-22T02:02:41.570Z,15.82
2023-02-22T02:07:46.666Z,16.35
2023-02-22T02:12:51.149Z,15.87
2023-02-22T02:18:04.253Z,15.50
2023-02-22T02:23:41.352Z,16.33
2023-02-22T02:28:49.515Z,14.73
2023-02-22T02:34:09.694Z,14.07
2023-02-22T02:39:25.854Z,14.00
2023-02-22T02:49:48.886Z,15.07
2023-02-22T02:54:52.932Z,13.93
2023-02-22T02:59:55.074Z,12.77
2023-02-22T03:05:16.350Z,12.68
2023-02-22T03:10:37.999Z,12.45
2023-02-22T03:15:57.107Z,14.20
2023-02-22T03:21:07.152Z,13.25
2023-02-22T03:26:19.448Z,13.55
2023-02-22T03:31:37.939Z,13.77
2023-02-22T03:36:47.607Z,12.02
2023-02-22T03:41:51.588Z,13.48
2023-02-22T03:47:02.602Z,12.93
2023-02-22T03:52:07.027Z,12.55
2023-02-22T03:57:21.138Z,12.18
2023-02-22T04:02:33.556Z,11.38
2023-02-22T04:07:35.818Z,10.85
2023-02-22T04:12:38.625Z,10.30
2023-02-22T04:17:42.738Z,8.73
2023-02-22T04:22:48.688Z,9.32
2023-02-22T04:27:51.447Z,10.52
2023-02-22T04:32:57.927Z,11.13
2023-02-22T04:38:00.555Z,10.55
2023-02-22T04:43:02.878Z,12.43
2023-02-22T04:48:05.205Z,11.20
2023-02-22T04:53:07.430Z,11.02
2023-02-22T05:03:15.441Z,10.15
2023-02-22T05:08:17.565Z,9.75
2023-02-22T05:13:19.674Z,10.18
2023-02-22T05:18:21.810Z,11.15
2023-02-22T05:23:24.050Z,10.13
2023-02-22T05:28:27.020Z,10.75
2023-02-22T05:33:29.155Z,9.45
2023-02-22T05:38:31.326Z,9.57
2023-02-22T05:43:33.464Z,8.93
2023-02-22T05:48:35.633Z,9.25
2023-02-22T05:53:38.094Z,9.02
2023-02-22T05:58:40.234Z,8.75
2023-02-22T06:03:42.418Z,8.20
2023-02-22T06:08:44.631Z,8.20
2023-02-22T06:13:52.048Z,3.50
2023-02-22T06:18:54.216Z,2.63
2023-02-22T06:23:56.460Z,2.55
2023-02-22T06:28:58.675Z,1.77
2023-02-22T06:34:00.907Z,1.38
2023-02-22T06:39:03.400Z,1.17
2023-02-22T06:44:05.464Z,1.20
2023-02-22T06:49:07.577Z,1.27
2023-02-22T06:54:10.061Z,1.30
2023-02-22T06:59:12.198Z,0.80
2023-02-22T07:04:14.325Z,0.90
2023-02-22T07:09:18.282Z,0.95
2023-02-22T07:14:20.361Z,0.98
2023-02-22T07:19:22.500Z,0.95
2023-02-22T07:24:25.271Z,1.60
2023-02-22T07:29:27.316Z,1.52
2023-02-22T07:34:29.481Z,1.63
2023-02-22T07:39:31.676Z,1.70
2023-02-22T07:44:33.826Z,0.80
2023-02-22T07:49:36.803Z,0.82
2023-02-22T07:54:38.912Z,1.02
2023-02-22T07:59:41.058Z,0.57
2023-02-22T08:04:43.262Z,0.80
2023-02-22T08:09:45.392Z,0.95
2023-02-22T08:14:47.540Z,1.40
2023-02-22T08:19:49.676Z,4.47
2023-02-22T08:24:54.356Z,2.00
2023-02-22T08:29:57.585Z,1.10
2023-02-22T08:34:59.644Z,1.17
2023-02-22T08:40:01.689Z,1.20
2023-02-22T08:45:03.972Z,1.15
2023-02-22T08:50:06.986Z,1.33
2023-02-22T08:55:09.102Z,1.13
2023-02-22T09:00:11.944Z,1.35
2023-02-22T09:05:14.079Z,1.23
2023-02-22T09:10:19.658Z,1.40
2023-02-22T09:15:23.007Z,1.55
2023-02-22T09:20:25.633Z,1.50
2023-02-22T09:25:27.729Z,1.15
2023-02-22T09:30:35.054Z,1.42
2023-02-22T09:35:46.451Z,1.90
2023-02-22T09:41:02.625Z,1.80
2023-02-22T09:51:16.630Z,0.95
2023-02-22T09:56:20.911Z,1.20
2023-02-22T10:01:33.341Z,0.98
2023-02-22T10:06:37.129Z,0.85
2023-02-22T10:12:03.683Z,0.88
2023-02-22T10:17:24.583Z,1.30
2023-02-22T10:22:59.551Z,1.30
2023-02-22T10:28:13.550Z,1.17
2023-02-22T10:33:36.771Z,1.60
2023-02-22T10:38:39.505Z,1.55
2023-02-22T10:43:43.029Z,1.80
2023-02-22T10:48:48.860Z,1.70
2023-02-22T10:54:20.025Z,1.25
2023-02-22T10:59:37.562Z,0.95
2023-02-22T11:04:49.775Z,2.50
2023-02-22T11:10:04.143Z,1.40
2023-02-22T11:15:32.839Z,1.33
2023-02-22T11:20:39.509Z,1.15
2023-02-22T11:25:42.919Z,1.35
2023-02-22T11:30:50.090Z,1.38
2023-02-22T11:35:54.719Z,1.65
2023-02-22T11:41:17.800Z,1.48
2023-02-22T11:46:27.195Z,1.13
2023-02-22T11:51:41.375Z,1.20
2023-02-22T11:56:47.039Z,1.55
2023-02-22T12:02:23.601Z,1.50
2023-02-22T12:12:34.909Z,1.75
2023-02-22T12:18:03.225Z,1.40
2023-02-22T12:23:36.339Z,1.60
2023-02-22T12:28:40.101Z,1.10
2023-02-22T12:34:26.740Z,1.65
2023-02-22T12:39:55.301Z,1.33
2023-02-22T12:45:05.134Z,1.60
2023-02-22T12:50:20.094Z,1.40
2023-02-22T12:55:52.419Z,2.00
2023-02-22T13:01:06.977Z,2.75
2023-02-22T13:06:15.503Z,1.90
2023-02-22T13:11:36.939Z,1.52
2023-02-22T13:17:21.769Z,2.25
2023-02-22T13:22:54.120Z,1.67
2023-02-22T13:28:00.128Z,1.73
2023-02-22T13:33:08.370Z,1.23
2023-02-22T13:38:29.051Z,1.13
2023-02-22T13:43:49.581Z,1.13
2023-02-22T13:49:16.408Z,1.80
2023-02-22T13:54:27.512Z,1.95
2023-02-22T13:59:33.305Z,1.40
2023-02-22T14:04:41.360Z,1.17
2023-02-22T14:09:53.183Z,1.00
2023-02-22T14:15:18.680Z,1.90
2023-02-22T14:20:38.221Z,1.50
2023-02-22T14:25:44.206Z,1.90
2023-02-22T14:30:46.686Z,1.75
2023-02-22T14:35:50.484Z,1.73
2023-02-22T14:40:54.359Z,1.23
2023-02-22T14:46:00.427Z,1.60
2023-02-22T14:51:21.408Z,1.25
2023-02-22T14:56:36.242Z,1.40
2023-02-22T15:01:50.783Z,1.17
2023-02-22T15:06:57.248Z,1.10
2023-02-22T15:12:05.523Z,1.90
2023-02-22T15:17:27.325Z,1.17
2023-02-22T15:22:36.698Z,1.15
2023-02-22T15:27:45.909Z,1.60
2023-02-22T15:33:03.099Z,1.15
2023-02-22T15:38:07.432Z,1.48
2023-02-22T15:43:28.469Z,1.73
2023-02-22T15:48:31.806Z,1.23
2023-02-22T15:53:47.005Z,1.63
2023-02-22T15:58:49.533Z,1.13
2023-02-22T16:03:54.742Z,1.75
2023-02-22T16:08:59.468Z,1.70
2023-02-22T16:14:05.144Z,1.52
2023-02-22T16:19:37.192Z,0.90
2023-02-22T16:24:40.353Z,1.10
2023-02-22T16:29:42.893Z,1.90
2023-02-22T16:34:45.021Z,1.80
2023-02-22T16:39:47.217Z,1.10
2023-02-22T16:44:50.594Z,1.75
2023-02-22T16:49:52.945Z,1.70
2023-02-22T16:54:55.158Z,1.60
2023-02-22T16:59:57.513Z,1.50
2023-02-22T17:05:00.773Z,1.48
2023-02-22T17:10:02.834Z,2.30
2023-02-22T17:15:05.224Z,1.50
2023-02-22T17:20:11.624Z,1.40
2023-02-22T17:25:23.066Z,2.33
2023-02-22T17:30:25.275Z,1.67
2023-02-22T17:35:27.527Z,1.67
2023-02-22T17:40:30.012Z,1.20
2023-02-22T17:45:32.444Z,1.67
2023-02-22T17:50:38.090Z,1.42
2023-02-22T17:55:42.256Z,1.73
2023-02-22T18:00:48.466Z,1.67
2023-02-22T18:05:55.663Z,1.55
2023-02-22T18:10:59.010Z,1.27
2023-02-22T18:16:01.200Z,1.70
2023-02-22T18:21:03.898Z,1.70
2023-02-22T18:26:11.398Z,1.50
2023-02-22T18:31:16.578Z,2.33
2023-02-22T18:36:23.410Z,1.52
2023-02-22T18:41:25.893Z,1.88
2023-02-22T18:46:30.210Z,1.48
2023-02-22T18:51:32.573Z,1.73
2023-02-22T18:56:34.719Z,2.00
2023-02-22T19:01:39.178Z,1.20
2023-02-22T19:06:44.827Z,0.73
2023-02-22T19:11:48.433Z,1.17
2023-02-22T19:16:51.174Z,1.10
2023-02-22T19:21:56.369Z,0.80
2023-02-22T19:27:00.053Z,1.20
2023-02-22T19:32:02.247Z,1.60
2023-02-22T19:37:06.001Z,0.90
2023-02-22T19:42:10.090Z,1.13
2023-02-22T19:47:12.682Z,1.13
2023-02-22T19:52:14.870Z,1.10
2023-02-22T19:57:17.073Z,0.95
2023-02-22T20:02:20.515Z,1.10
2023-02-22T20:07:23.179Z,1.13
2023-02-22T20:12:25.252Z,1.38
2023-02-22T20:17:27.889Z,1.90
2023-02-22T20:22:29.953Z,1.90
2023-02-22T20:27:32.068Z,1.90
2023-02-22T20:32:34.327Z,1.80
2023-02-22T20:37:38.951Z,1.70
2023-02-22T20:42:41.163Z,1.70
2023-02-22T20:47:43.503Z,4.15
2023-02-22T20:52:45.704Z,3.88
2023-02-22T20:57:47.825Z,4.85
2023-02-22T21:02:49.910Z,4.55
2023-02-22T21:07:52.031Z,3.95
2023-02-22T21:12:56.909Z,3.67
2023-02-22T21:18:00.841Z,4.50
2023-02-22T21:23:04.556Z,4.50
2023-02-22T21:28:06.782Z,4.10
2023-02-22T21:33:09.150Z,4.55
2023-02-22T21:38:14.565Z,4.13
2023-02-22T21:43:16.827Z,4.10
2023-02-22T21:48:19.032Z,3.90
2023-02-22T21:53:22.730Z,4.05
2023-02-22T21:58:24.860Z,3.53
2023-02-22T22:03:27.430Z,3.40
2023-02-22T22:08:31.750Z,4.63
2023-02-22T22:13:33.861Z,4.50
2023-02-22T22:18:37.946Z,4.00
2023-02-22T22:23:41.403Z,3.92
2023-02-22T22:28:49.099Z,3.58
2023-02-22T22:33:51.794Z,3.90
2023-02-22T22:38:57.601Z,4.13
2023-02-22T22:49:02.462Z,2.85
2023-02-22T22:54:09.526Z,2.92
2023-02-22T22:59:13.301Z,3.10
2023-02-22T23:04:17.008Z,2.60
2023-02-22T23:09:29.663Z,2.60
2023-02-22T23:14:32.040Z,3.70
2023-02-22T23:19:36.164Z,3.13
2023-02-22T23:24:39.623Z,3.17
2023-02-22T23:29:42.917Z,3.08
2023-02-22T23:34:47.991Z,3.38
2023-02-22T23:39:51.173Z,2.73
2023-02-22T23:44:53.527Z,2.47
2023-02-22T23:49:58.306Z,2.58
2023-02-22T23:55:05.517Z,2.92
